createdAt,value
2023-04-30T00:01:07.000Z,4.9
2023-04-30T00:02:23.204Z,5.8
2023-04-30T00:03:39.000Z,5.1
2023-04-30T00:04:55.000Z,5.7
2023-04-30T00:06:11.000Z,5.5
2023-04-30T00:07:27.000Z,5.9
2023-04-30T00:08:43.917Z,6.1
2023-04-30T00:09:59.000Z,5.5
2023-04-30T00:11:15.000Z,5.1
2023-04-30T00:13:46.538Z,7.7
2023-04-30T00:15:02.690Z,8.8
2023-04-30T00:16:17.000Z,7.1
2023-04-30T00:17:32.000Z,7
2023-04-30T00:18:48.000Z,5.4
2023-04-30T00:20:05.000Z,5.2
2023-04-30T00:21:21.446Z,5.9
2023-04-30T00:22:37.000Z,4.8
2023-04-30T00:23:53.000Z,5.5
2023-04-30T00:25:09.000Z,6.2
2023-04-30T00:26:25.000Z,5.4
2023-04-30T00:27:41.000Z,5.9
2023-04-30T00:28:58.000Z,5.9
2023-04-30T00:30:14.000Z,5.6
2023-04-30T00:31:30.000Z,5.3
2023-04-30T00:32:46.000Z,5.9
2023-04-30T00:34:01.000Z,11.7
2023-04-30T00:35:17.000Z,8.6
2023-04-30T00:36:34.193Z,6.9
2023-04-30T00:37:50.000Z,6
2023-04-30T00:39:06.000Z,5.7
2023-04-30T00:40:22.000Z,5.3
2023-04-30T00:41:38.000Z,6
2023-04-30T00:42:53.927Z,6.1
2023-04-30T00:44:09.000Z,6.2
2023-04-30T00:45:25.000Z,5.7
2023-04-30T00:46:40.000Z,6.5
2023-04-30T00:47:56.000Z,6.3
2023-04-30T00:49:12.000Z,6.6
2023-04-30T00:50:28.000Z,6.9
2023-04-30T00:51:44.000Z,7.2
2023-04-30T00:53:00.000Z,6.2
2023-04-30T00:54:17.000Z,6.3
2023-04-30T00:55:33.000Z,6.6
2023-04-30T00:56:49.000Z,6.4
2023-04-30T00:58:05.697Z,6.5
2023-04-30T00:59:21.000Z,6.5
2023-04-30T01:00:37.994Z,6.9
2023-04-30T01:01:53.000Z,6.6
2023-04-30T01:03:09.000Z,6.5
2023-04-30T01:04:25.000Z,6.6
2023-04-30T01:05:41.000Z,5.9
2023-04-30T01:06:57.000Z,7.4
2023-04-30T01:08:13.000Z,7.7
2023-04-30T01:09:29.000Z,6.9
2023-04-30T01:10:46.160Z,7.2
2023-04-30T01:12:01.000Z,7.4
2023-04-30T01:13:16.000Z,8
2023-04-30T01:14:31.439Z,7
2023-04-30T01:17:02.965Z,7.9
2023-04-30T01:18:17.000Z,7.7
2023-04-30T01:19:33.000Z,7.2
2023-04-30T01:22:05.585Z,7.3
2023-04-30T01:23:21.727Z,6.5
2023-04-30T01:24:37.000Z,7.2
2023-04-30T01:25:54.012Z,7.7
2023-04-30T01:27:09.000Z,8.9
2023-04-30T01:28:26.000Z,7.7
2023-04-30T01:30:58.000Z,7.7
2023-04-30T01:32:14.000Z,7.4
2023-04-30T01:33:30.882Z,8.6
2023-04-30T01:34:45.000Z,7.7
2023-04-30T01:36:01.206Z,7
2023-04-30T01:37:17.000Z,7.5
2023-04-30T01:38:33.000Z,7.8
2023-04-30T01:39:49.000Z,8.6
2023-04-30T01:41:05.000Z,7.7
2023-04-30T01:42:21.000Z,6.9
2023-04-30T01:43:37.000Z,8.1
2023-04-30T01:44:53.000Z,8.2
2023-04-30T01:46:10.358Z,8.4
2023-04-30T01:47:26.000Z,8.4
2023-04-30T01:48:41.000Z,7.4
2023-04-30T01:49:56.000Z,7.3
2023-04-30T01:51:12.000Z,7.6
2023-04-30T01:52:28.000Z,7.9
2023-04-30T01:53:45.000Z,8.6
2023-04-30T01:55:01.000Z,8.4
2023-04-30T01:56:17.000Z,7.3
2023-04-30T01:57:33.000Z,8.7
2023-04-30T01:58:49.843Z,8.8
2023-04-30T02:00:05.975Z,8.3
2023-04-30T02:01:21.000Z,9
2023-04-30T02:02:38.000Z,8.5
2023-04-30T02:03:54.000Z,8.5
2023-04-30T02:05:10.000Z,8.3
2023-04-30T02:06:25.000Z,8.6
2023-04-30T02:07:41.858Z,8.5
2023-04-30T02:08:57.000Z,9.1
2023-04-30T02:11:30.293Z,8.8
2023-04-30T02:12:46.434Z,9.3
2023-04-30T02:14:02.586Z,8.8
2023-04-30T02:15:18.000Z,9
2023-04-30T02:16:33.000Z,8.4
2023-04-30T02:17:48.000Z,9.4
2023-04-30T02:19:03.000Z,8.5
2023-04-30T02:21:35.000Z,9.3
2023-04-30T02:22:51.000Z,8.8
2023-04-30T02:24:07.000Z,8.9
2023-04-30T02:26:39.000Z,9
2023-04-30T02:27:56.000Z,9.5
2023-04-30T02:29:12.395Z,9.1
2023-04-30T02:31:44.000Z,9.2
2023-04-30T02:33:00.000Z,8.9
2023-04-30T02:34:16.000Z,10
2023-04-30T02:35:32.000Z,9.8
2023-04-30T02:36:48.292Z,9.4
2023-04-30T02:38:04.000Z,9.5
2023-04-30T02:39:19.588Z,10
2023-04-30T02:40:35.000Z,10.1
2023-04-30T02:41:51.883Z,10.4
2023-04-30T02:43:07.000Z,9.7
2023-04-30T02:44:23.000Z,11.1
2023-04-30T02:45:40.000Z,10
2023-04-30T02:46:56.000Z,10.4
2023-04-30T02:48:12.000Z,10.5
2023-04-30T02:49:28.000Z,10.3
2023-04-30T02:50:44.000Z,9.9
2023-04-30T02:51:59.000Z,11.2
2023-04-30T02:53:14.000Z,11.4
2023-04-30T02:54:31.000Z,10.5
2023-04-30T02:55:47.000Z,10.6
2023-04-30T02:57:03.000Z,10.7
2023-04-30T02:58:18.000Z,10.2
2023-04-30T02:59:34.000Z,10.3
2023-04-30T03:00:51.102Z,10.1
2023-04-30T03:03:23.000Z,10.3
2023-04-30T03:04:39.000Z,9.8
2023-04-30T03:05:55.000Z,9.7
2023-04-30T03:07:11.000Z,9.3
2023-04-30T03:08:27.000Z,9.8
2023-04-30T03:09:43.000Z,10.5
2023-04-30T03:11:00.000Z,9.9
2023-04-30T03:12:16.000Z,10.1
2023-04-30T03:13:32.000Z,9.3
2023-04-30T03:14:47.000Z,8.7
2023-04-30T03:16:03.000Z,9.2
2023-04-30T03:17:19.000Z,9.4
2023-04-30T03:18:35.000Z,9.2
2023-04-30T03:19:51.000Z,9.9
2023-04-30T03:21:06.000Z,9.5
2023-04-30T03:22:22.000Z,9.2
2023-04-30T03:23:38.000Z,9.2
2023-04-30T03:24:54.000Z,9.3
2023-04-30T03:26:09.000Z,10.5
2023-04-30T03:27:26.000Z,10.3
2023-04-30T03:28:42.000Z,10.1
2023-04-30T03:29:58.627Z,10.6
2023-04-30T03:31:14.000Z,9.8
2023-04-30T03:32:30.919Z,10.4
2023-04-30T03:33:46.000Z,9.9
2023-04-30T03:35:02.000Z,10.2
2023-04-30T03:36:19.354Z,9.8
2023-04-30T03:37:35.000Z,9.9
2023-04-30T03:38:51.000Z,10.8
2023-04-30T03:40:07.000Z,11.3
2023-04-30T03:41:23.000Z,10.6
2023-04-30T03:42:38.000Z,9.8
2023-04-30T03:43:55.000Z,10.5
2023-04-30T03:45:11.000Z,9.8
2023-04-30T03:46:27.518Z,10.4
2023-04-30T03:47:43.000Z,9.9
2023-04-30T03:48:59.000Z,11.1
2023-04-30T03:50:15.000Z,10
2023-04-30T03:51:30.000Z,10.5
2023-04-30T03:52:46.000Z,10.9
2023-04-30T03:54:02.000Z,10.4
2023-04-30T03:55:17.000Z,10.7
2023-04-30T03:56:32.757Z,11
2023-04-30T03:57:48.000Z,11
2023-04-30T03:59:04.000Z,10.6
2023-04-30T04:00:20.000Z,11
2023-04-30T04:01:37.000Z,11
2023-04-30T04:02:53.000Z,11
2023-04-30T04:04:09.000Z,10.1
2023-04-30T04:05:25.000Z,10.4
2023-04-30T04:06:41.000Z,9.8
2023-04-30T04:07:57.000Z,10.1
2023-04-30T04:09:13.000Z,10.4
2023-04-30T04:10:30.335Z,9.9
2023-04-30T04:11:46.000Z,10.4
2023-04-30T04:13:01.000Z,10.8
2023-04-30T04:14:17.000Z,10.4
2023-04-30T04:15:33.931Z,10.7
2023-04-30T04:16:49.000Z,10.7
2023-04-30T04:18:05.000Z,10.9
2023-04-30T04:19:22.000Z,10.3
2023-04-30T04:20:38.000Z,9.5
2023-04-30T04:21:53.000Z,10.3
2023-04-30T04:23:08.839Z,10.7
2023-04-30T04:24:23.000Z,9.8
2023-04-30T04:25:38.000Z,10.3
2023-04-30T04:26:55.000Z,10
2023-04-30T04:28:11.000Z,9.4
2023-04-30T04:29:27.000Z,9.2
2023-04-30T04:30:43.741Z,10.6
2023-04-30T04:31:59.000Z,9.5
2023-04-30T04:33:16.000Z,10.4
2023-04-30T04:34:32.176Z,9.3
2023-04-30T04:35:48.318Z,9.1
2023-04-30T04:37:04.000Z,9.4
2023-04-30T04:38:20.000Z,8.7
2023-04-30T04:39:36.000Z,8.1
2023-04-30T04:40:52.894Z,8.6
2023-04-30T04:42:07.000Z,8.1
2023-04-30T04:43:23.000Z,8.1
2023-04-30T04:44:40.000Z,8.1
2023-04-30T04:45:56.000Z,7
2023-04-30T04:47:12.000Z,7.6
2023-04-30T04:48:28.000Z,6.6
2023-04-30T04:49:44.921Z,6.5
2023-04-30T04:51:00.084Z,7.4
2023-04-30T04:52:15.000Z,7.5
2023-04-30T04:53:31.000Z,7.2
2023-04-30T04:54:46.000Z,6.3
2023-04-30T04:56:01.729Z,6.2
2023-04-30T04:57:17.000Z,6.2
2023-04-30T04:58:33.000Z,5.9
2023-04-30T04:59:49.000Z,7
2023-04-30T05:01:06.000Z,6.3
2023-04-30T05:03:38.000Z,6.7
2023-04-30T05:04:54.000Z,5.7
2023-04-30T05:06:10.000Z,6.7
2023-04-30T05:07:26.000Z,6.3
2023-04-30T05:08:42.000Z,6.4
2023-04-30T05:09:59.000Z,6.2
2023-04-30T05:11:15.000Z,5.7
2023-04-30T05:12:30.611Z,6.6
2023-04-30T05:13:46.000Z,5.9
2023-04-30T05:15:02.894Z,6.6
2023-04-30T05:16:18.000Z,5.8
2023-04-30T05:17:34.000Z,5.8
2023-04-30T05:18:51.000Z,5.5
2023-04-30T05:20:07.000Z,6.3
2023-04-30T05:21:23.000Z,5.9
2023-04-30T05:22:38.000Z,5.9
2023-04-30T05:23:53.949Z,4.9
2023-04-30T05:25:08.000Z,5.9
2023-04-30T05:26:24.000Z,6.1
2023-04-30T05:27:40.000Z,5.4
2023-04-30T05:28:56.000Z,5.9
2023-04-30T05:30:12.000Z,5.8
2023-04-30T05:31:28.000Z,5.1
2023-04-30T05:32:44.000Z,5
2023-04-30T05:34:01.137Z,6.1
2023-04-30T05:35:17.000Z,5.3
2023-04-30T05:36:33.000Z,5.2
2023-04-30T05:37:49.000Z,5
2023-04-30T05:39:05.000Z,4.3
2023-04-30T05:40:21.000Z,4.3
2023-04-30T05:41:37.000Z,5
2023-04-30T05:42:53.170Z,4.3
2023-04-30T05:44:09.311Z,4.2
2023-04-30T05:45:25.000Z,4.3
2023-04-30T05:46:41.000Z,4.5
2023-04-30T05:47:57.000Z,4.3
2023-04-30T05:49:13.000Z,4.1
2023-04-30T05:50:30.034Z,4.9
2023-04-30T05:51:44.000Z,4.4
2023-04-30T05:53:00.000Z,4.7
2023-04-30T05:54:16.000Z,3.7
2023-04-30T05:55:32.000Z,3.9
2023-04-30T05:56:47.000Z,4.1
2023-04-30T05:58:02.000Z,3.9
2023-04-30T05:59:18.000Z,4.3
2023-04-30T06:00:35.000Z,3.8
2023-04-30T06:01:51.425Z,3.9
2023-04-30T06:03:07.000Z,4.2
2023-04-30T06:04:23.000Z,4
2023-04-30T06:05:39.000Z,3.7
2023-04-30T06:06:55.000Z,5
2023-04-30T06:08:11.000Z,4.1
2023-04-30T06:09:28.000Z,3.3
2023-04-30T06:10:44.000Z,4.2
2023-04-30T06:12:00.000Z,3.5
2023-04-30T06:13:16.000Z,3.5
2023-04-30T06:14:31.000Z,3.8
2023-04-30T06:15:47.000Z,3.5
2023-04-30T06:17:04.189Z,3.7
2023-04-30T06:18:20.000Z,3.4
2023-04-30T06:19:36.000Z,3.3
2023-04-30T06:20:52.000Z,4.5
2023-04-30T06:22:08.000Z,4
2023-04-30T06:23:23.000Z,4.3
2023-04-30T06:24:39.088Z,3.3
2023-04-30T06:25:55.000Z,4.6
2023-04-30T06:27:10.000Z,3.6
2023-04-30T06:28:25.000Z,3.8
2023-04-30T06:29:41.709Z,3.2
2023-04-30T06:30:57.000Z,4.1
2023-04-30T06:32:13.000Z,3.4
2023-04-30T06:34:46.293Z,3.9
2023-04-30T06:36:02.000Z,3.5
2023-04-30T06:37:18.587Z,3.5
2023-04-30T06:38:34.000Z,3.5
2023-04-30T06:39:50.000Z,3.5
2023-04-30T06:41:06.000Z,3.7
2023-04-30T06:42:23.159Z,3.8
2023-04-30T06:43:39.000Z,3.8
2023-04-30T06:44:54.000Z,4
2023-04-30T06:46:10.000Z,3.7
2023-04-30T06:47:26.000Z,4.6
2023-04-30T06:48:42.000Z,3.7
2023-04-30T06:49:58.000Z,3.6
2023-04-30T06:51:14.000Z,3.5
2023-04-30T06:52:31.000Z,3.7
2023-04-30T06:53:47.000Z,3.6
2023-04-30T06:55:02.000Z,3.6
2023-04-30T06:56:17.000Z,3.4
2023-04-30T06:57:32.000Z,3.8
2023-04-30T06:58:47.000Z,3.3
2023-04-30T07:00:04.000Z,3.3
2023-04-30T07:01:20.000Z,3
2023-04-30T07:02:36.000Z,2.9
2023-04-30T07:03:52.000Z,3.5
2023-04-30T07:05:08.000Z,3.9
2023-04-30T07:06:24.000Z,3.2
2023-04-30T07:07:40.000Z,2.8
2023-04-30T07:08:57.314Z,3.9
2023-04-30T07:10:13.000Z,3.5
2023-04-30T07:11:29.000Z,3.4
2023-04-30T07:12:44.771Z,2.9
2023-04-30T07:14:00.915Z,3.6
2023-04-30T07:15:16.000Z,2.9
2023-04-30T07:16:32.000Z,4.2
2023-04-30T07:17:49.345Z,3.3
2023-04-30T07:19:05.000Z,3.5
2023-04-30T07:20:21.000Z,4.5
2023-04-30T07:21:37.000Z,3.2
2023-04-30T07:22:53.000Z,3.8
2023-04-30T07:24:08.000Z,3.2
2023-04-30T07:25:24.000Z,3.3
2023-04-30T07:26:39.000Z,3.3
2023-04-30T07:27:54.000Z,2.9
2023-04-30T07:29:10.000Z,3
2023-04-30T07:30:26.000Z,3.2
2023-04-30T07:31:42.000Z,3.6
2023-04-30T07:32:58.000Z,2.9
2023-04-30T07:34:15.000Z,3.5
2023-04-30T07:35:31.458Z,3.7
2023-04-30T07:36:47.000Z,3.8
2023-04-30T07:38:03.000Z,2.9
2023-04-30T07:39:19.000Z,2.9
2023-04-30T07:40:35.000Z,3.5
2023-04-30T07:41:51.000Z,4.2
2023-04-30T07:43:08.327Z,3
2023-04-30T07:44:23.000Z,3.5
2023-04-30T07:45:39.638Z,3.5
2023-04-30T07:46:55.778Z,3.5
2023-04-30T07:48:11.000Z,3.5
2023-04-30T07:49:27.000Z,3.5
2023-04-30T07:50:43.000Z,3.2
2023-04-30T07:52:00.000Z,3.1
2023-04-30T07:53:15.000Z,3.5
2023-04-30T07:54:31.000Z,3.3
2023-04-30T07:55:46.845Z,3.3
2023-04-30T07:57:01.000Z,3.6
2023-04-30T07:58:17.000Z,3.3
2023-04-30T07:59:34.000Z,3.6
2023-04-30T08:00:50.000Z,3.6
2023-04-30T08:02:06.000Z,3.1
2023-04-30T08:03:22.731Z,3.3
2023-04-30T08:04:38.000Z,3.4
2023-04-30T08:05:54.000Z,3.4
2023-04-30T08:07:11.166Z,3.6
2023-04-30T08:08:27.000Z,3.7
2023-04-30T08:09:43.459Z,3.1
2023-04-30T08:10:59.000Z,3.8
2023-04-30T08:12:15.000Z,3.8
2023-04-30T08:13:30.000Z,3.3
2023-04-30T08:14:46.000Z,3.5
2023-04-30T08:16:02.000Z,3.1
2023-04-30T08:17:19.000Z,2.9
2023-04-30T08:18:35.000Z,3.1
2023-04-30T08:19:51.000Z,3.4
2023-04-30T08:21:07.000Z,3.1
2023-04-30T08:22:22.000Z,3.2
2023-04-30T08:23:38.109Z,2.7
2023-04-30T08:24:54.000Z,2.9
2023-04-30T08:26:10.000Z,2.9
2023-04-30T08:27:26.000Z,3.2
2023-04-30T08:28:42.000Z,3.4
2023-04-30T08:29:58.000Z,3.5
2023-04-30T08:31:14.000Z,2.9
2023-04-30T08:32:30.000Z,2.7
2023-04-30T08:33:47.263Z,3.1
2023-04-30T08:35:03.000Z,2.4
2023-04-30T08:36:19.000Z,2.8
2023-04-30T08:37:35.000Z,3.1
2023-04-30T08:38:51.000Z,2.9
2023-04-30T08:40:06.000Z,3.4
2023-04-30T08:41:23.150Z,3.1
2023-04-30T08:45:11.000Z,3.2
2023-04-30T08:46:26.751Z,3.2
2023-04-30T08:47:41.000Z,3.1
2023-04-30T08:48:57.000Z,3
2023-04-30T08:50:13.000Z,2.7
2023-04-30T08:51:30.000Z,2.8
2023-04-30T08:52:46.493Z,2.8
2023-04-30T08:54:02.638Z,3
2023-04-30T08:55:18.000Z,2.7
2023-04-30T08:56:34.930Z,2.8
2023-04-30T08:57:51.069Z,2.7
2023-04-30T08:59:06.000Z,2.6
2023-04-30T09:00:22.000Z,3.2
2023-04-30T09:01:37.000Z,2.7
2023-04-30T09:02:52.000Z,3.5
2023-04-30T09:04:07.000Z,2.8
2023-04-30T09:05:24.025Z,3.1
2023-04-30T09:06:39.000Z,3.3
2023-04-30T09:07:56.000Z,3
2023-04-30T09:09:12.460Z,2.8
2023-04-30T09:10:28.000Z,3.3
2023-04-30T09:11:44.000Z,2.7
2023-04-30T09:13:00.000Z,3.1
2023-04-30T09:14:16.000Z,3.2
2023-04-30T09:15:32.000Z,3
2023-04-30T09:16:49.000Z,2.6
2023-04-30T09:18:05.000Z,3.1
2023-04-30T09:19:21.000Z,3.2
2023-04-30T09:20:36.000Z,2.9
2023-04-30T09:21:52.919Z,3
2023-04-30T09:23:08.000Z,3
2023-04-30T09:24:24.000Z,3.3
2023-04-30T09:25:41.000Z,2.8
2023-04-30T09:26:57.000Z,2.7
2023-04-30T09:29:29.000Z,2.7
2023-04-30T09:30:44.000Z,2.8
2023-04-30T09:31:59.000Z,3
2023-04-30T09:33:15.000Z,3.1
2023-04-30T09:34:30.000Z,2.9
2023-04-30T09:35:46.594Z,3.2
2023-04-30T09:37:02.744Z,3.5
2023-04-30T09:38:18.000Z,3.2
2023-04-30T09:39:34.000Z,3.1
2023-04-30T09:40:50.000Z,3
2023-04-30T09:42:07.324Z,3.1
2023-04-30T09:43:23.472Z,3.2
2023-04-30T09:44:39.000Z,3.4
2023-04-30T09:45:55.760Z,3
2023-04-30T09:47:11.000Z,3.4
2023-04-30T09:48:27.000Z,2.8
2023-04-30T09:49:43.000Z,3
2023-04-30T09:50:59.368Z,3
2023-04-30T09:52:15.498Z,2.9
2023-04-30T09:53:31.652Z,3
2023-04-30T09:54:47.000Z,3.4
2023-04-30T09:56:03.000Z,3.3
2023-04-30T09:57:20.081Z,3
2023-04-30T09:58:35.000Z,3.2
2023-04-30T09:59:51.000Z,3.4
2023-04-30T10:01:06.000Z,3.3
2023-04-30T10:02:22.000Z,3.1
2023-04-30T10:03:38.000Z,3.1
2023-04-30T10:04:54.000Z,3.2
2023-04-30T10:06:10.000Z,2.8
2023-04-30T10:07:27.000Z,3.1
2023-04-30T10:08:43.000Z,3.2
2023-04-30T10:09:59.571Z,2.9
2023-04-30T10:11:15.000Z,3.4
2023-04-30T10:12:31.000Z,3.3
2023-04-30T10:13:47.000Z,2.9
2023-04-30T10:15:03.000Z,3.2
2023-04-30T10:16:20.000Z,3.2
2023-04-30T10:17:35.000Z,2.9
2023-04-30T10:18:51.000Z,3.4
2023-04-30T10:20:07.000Z,3.6
2023-04-30T10:21:23.000Z,3.4
2023-04-30T10:22:39.000Z,3
2023-04-30T10:23:55.000Z,3
2023-04-30T10:25:12.000Z,3.1
2023-04-30T10:26:27.000Z,3.2
2023-04-30T10:27:42.000Z,3.5
2023-04-30T10:28:58.000Z,3.4
2023-04-30T10:30:14.000Z,3.2
2023-04-30T10:31:30.000Z,3.2
2023-04-30T10:32:47.000Z,3
2023-04-30T10:34:03.000Z,2.8
2023-04-30T10:35:19.000Z,3.2
2023-04-30T10:36:35.000Z,2.9
2023-04-30T10:37:51.836Z,2.8
2023-04-30T10:39:07.000Z,3
2023-04-30T10:40:23.000Z,2.7
2023-04-30T10:41:40.000Z,2.9
2023-04-30T10:42:56.000Z,2.5
2023-04-30T10:44:11.000Z,2.7
2023-04-30T10:45:27.000Z,3.2
2023-04-30T10:46:43.000Z,3.1
2023-04-30T10:47:59.000Z,3.2
2023-04-30T10:49:15.000Z,3
2023-04-30T10:50:32.000Z,2.9
2023-04-30T10:51:48.000Z,3.8
2023-04-30T10:53:03.596Z,2.7
2023-04-30T10:54:18.000Z,2.8
2023-04-30T10:55:33.000Z,3
2023-04-30T10:56:48.000Z,3
2023-04-30T10:58:04.000Z,2.8
2023-04-30T10:59:19.000Z,2.7
2023-04-30T11:00:34.594Z,2.7
2023-04-30T11:01:49.000Z,2.9
2023-04-30T11:03:05.000Z,3.1
2023-04-30T11:04:21.000Z,3.1
2023-04-30T11:05:38.183Z,3
2023-04-30T11:06:54.330Z,3.3
2023-04-30T11:08:10.000Z,2.9
2023-04-30T11:09:26.000Z,3.7
2023-04-30T11:10:42.000Z,3.1
2023-04-30T11:11:58.000Z,3.2
2023-04-30T11:13:14.000Z,3
2023-04-30T11:14:30.000Z,2.8
2023-04-30T11:15:47.349Z,3
2023-04-30T11:17:03.000Z,2.9
2023-04-30T11:18:18.000Z,3.2
2023-04-30T11:19:34.000Z,2.9
2023-04-30T11:20:50.000Z,2.9
2023-04-30T11:22:06.000Z,3.3
2023-04-30T11:23:23.000Z,2.6
2023-04-30T11:24:39.000Z,3.1
2023-04-30T11:25:55.000Z,3.4
2023-04-30T11:27:10.000Z,2.8
2023-04-30T11:28:25.000Z,2.9
2023-04-30T11:29:41.000Z,3
2023-04-30T11:30:57.000Z,3.3
2023-04-30T11:32:14.000Z,3
2023-04-30T11:33:30.000Z,3
2023-04-30T11:34:46.000Z,3.3
2023-04-30T11:36:02.000Z,2.7
2023-04-30T11:37:18.000Z,3
2023-04-30T11:38:35.026Z,2.9
2023-04-30T11:39:50.000Z,2.9
2023-04-30T11:41:07.000Z,3.5
2023-04-30T11:42:23.000Z,3.1
2023-04-30T11:43:39.000Z,3.2
2023-04-30T11:44:54.000Z,2.8
2023-04-30T11:46:10.000Z,2.9
2023-04-30T11:47:26.000Z,2.7
2023-04-30T11:48:42.000Z,3.1
2023-04-30T11:49:59.333Z,3.2
2023-04-30T11:51:15.000Z,2.7
2023-04-30T11:52:31.000Z,2.7
2023-04-30T11:53:46.000Z,2.5
2023-04-30T11:55:01.000Z,3
2023-04-30T11:56:16.000Z,2.8
2023-04-30T11:57:32.000Z,3
2023-04-30T11:58:48.000Z,2.7
2023-04-30T12:00:04.000Z,2.8
2023-04-30T12:01:20.000Z,2.9
2023-04-30T12:02:36.000Z,3
2023-04-30T12:03:52.000Z,3.7
2023-04-30T12:05:08.000Z,2.7
2023-04-30T12:06:25.000Z,3
2023-04-30T12:07:41.451Z,2.6
2023-04-30T12:08:57.000Z,3
2023-04-30T12:10:12.000Z,3.1
2023-04-30T12:11:27.000Z,2.9
2023-04-30T12:12:42.000Z,2.9
2023-04-30T12:13:58.000Z,2.9
2023-04-30T12:15:14.000Z,3.1
2023-04-30T12:16:30.000Z,2.6
2023-04-30T12:17:46.000Z,3.4
2023-04-30T12:19:02.000Z,3.2
2023-04-30T12:20:18.000Z,2.6
2023-04-30T12:21:34.000Z,2.6
2023-04-30T12:22:51.000Z,2.5
2023-04-30T12:24:07.000Z,3.2
2023-04-30T12:25:23.000Z,2.9
2023-04-30T12:26:39.000Z,2.8
2023-04-30T12:27:55.000Z,2.8
2023-04-30T12:29:11.000Z,2.5
2023-04-30T12:30:26.000Z,2.9
2023-04-30T12:31:43.000Z,3.2
2023-04-30T12:32:59.000Z,2.8
2023-04-30T12:34:15.000Z,2.9
2023-04-30T12:35:31.000Z,3.3
2023-04-30T12:36:47.877Z,3
2023-04-30T12:38:03.000Z,3.9
2023-04-30T12:39:18.000Z,2.7
2023-04-30T12:40:34.000Z,3.2
2023-04-30T12:41:50.494Z,3.1
2023-04-30T12:43:05.000Z,3.3
2023-04-30T12:44:21.000Z,3.2
2023-04-30T12:45:36.000Z,3.6
2023-04-30T12:46:53.119Z,2.8
2023-04-30T12:48:09.000Z,2.9
2023-04-30T12:49:25.000Z,3.3
2023-04-30T12:50:41.000Z,3
2023-04-30T12:51:57.000Z,2.8
2023-04-30T12:54:29.983Z,3.5
2023-04-30T12:55:45.000Z,3.2
2023-04-30T12:57:02.000Z,3.5
2023-04-30T12:58:18.000Z,3.5
2023-04-30T12:59:34.000Z,3
2023-04-30T13:00:50.000Z,3.6
2023-04-30T13:02:05.000Z,3.4
2023-04-30T13:03:21.000Z,3.5
2023-04-30T13:04:37.000Z,3.5
2023-04-30T13:05:54.000Z,3.4
2023-04-30T13:07:10.000Z,3
2023-04-30T13:08:26.000Z,3.1
2023-04-30T13:09:42.000Z,3.5
2023-04-30T13:10:57.000Z,3.3
2023-04-30T13:12:12.000Z,3.7
2023-04-30T13:13:28.000Z,3
2023-04-30T13:14:43.000Z,2.6
2023-04-30T13:15:59.550Z,3.5
2023-04-30T13:17:15.000Z,3.3
2023-04-30T13:18:31.000Z,3.6
2023-04-30T13:19:47.000Z,3.4
2023-04-30T13:21:04.125Z,3.7
2023-04-30T13:22:20.000Z,2.9
2023-04-30T13:23:36.000Z,3.4
2023-04-30T13:24:52.000Z,3.5
2023-04-30T13:26:08.000Z,3.8
2023-04-30T13:27:24.846Z,3.6
2023-04-30T13:28:40.000Z,3.7
2023-04-30T13:29:56.000Z,3.3
2023-04-30T13:31:12.000Z,3.5
2023-04-30T13:32:28.000Z,3.3
2023-04-30T13:33:44.000Z,3.1
2023-04-30T13:35:00.000Z,3
2023-04-30T13:36:16.874Z,3.3
2023-04-30T13:37:32.000Z,3.2
2023-04-30T13:38:48.000Z,3.3
2023-04-30T13:40:04.000Z,3.4
2023-04-30T13:41:19.498Z,3.2
2023-04-30T13:42:35.000Z,3.4
2023-04-30T13:43:51.000Z,2.9
2023-04-30T13:45:07.000Z,3.5
2023-04-30T13:46:23.000Z,3.2
2023-04-30T13:47:40.223Z,5.1
2023-04-30T13:48:56.000Z,3.1
2023-04-30T13:50:12.512Z,3.4
2023-04-30T13:51:28.000Z,3.7
2023-04-30T13:52:44.800Z,3.2
2023-04-30T13:54:00.000Z,3.3
2023-04-30T13:55:16.000Z,3.1
2023-04-30T13:56:33.000Z,3.2
2023-04-30T13:57:48.000Z,3.1
2023-04-30T13:59:04.000Z,3.2
2023-04-30T14:00:20.000Z,3.3
2023-04-30T14:01:36.000Z,2.9
2023-04-30T14:02:52.000Z,3.3
2023-04-30T14:04:08.000Z,3.7
2023-04-30T14:05:25.000Z,3.5
2023-04-30T14:06:40.000Z,3
2023-04-30T14:07:55.000Z,3.5
2023-04-30T14:09:10.000Z,3.7
2023-04-30T14:10:25.000Z,3.5
2023-04-30T14:11:41.000Z,3.3
2023-04-30T14:12:57.000Z,4
2023-04-30T14:14:14.000Z,3.3
2023-04-30T14:15:30.000Z,3.5
2023-04-30T14:16:46.000Z,3.4
2023-04-30T14:18:02.799Z,3.2
2023-04-30T14:19:18.000Z,3.5
2023-04-30T14:20:34.000Z,3.4
2023-04-30T14:21:51.244Z,3.4
2023-04-30T14:23:07.378Z,3.5
2023-04-30T14:24:23.000Z,3.6
2023-04-30T14:25:39.667Z,3
2023-04-30T14:26:54.000Z,3.3
2023-04-30T14:28:10.978Z,2.8
2023-04-30T14:29:26.000Z,3.4
2023-04-30T14:30:43.000Z,3.4
2023-04-30T14:31:59.000Z,3.6
2023-04-30T14:33:15.000Z,3.5
2023-04-30T14:34:31.698Z,3.2
2023-04-30T14:35:46.875Z,3.4
2023-04-30T14:37:02.050Z,3.2
2023-04-30T14:38:16.000Z,3.2
2023-04-30T14:39:32.000Z,3.4
2023-04-30T14:40:48.000Z,3.6
2023-04-30T14:42:04.656Z,3
2023-04-30T14:43:20.000Z,3.4
2023-04-30T14:44:36.000Z,3.3
2023-04-30T14:45:52.000Z,3
2023-04-30T14:47:09.000Z,3.3
2023-04-30T14:48:25.000Z,3.8
2023-04-30T14:49:41.000Z,3.2
2023-04-30T14:50:57.000Z,3.4
2023-04-30T14:52:13.000Z,3.2
2023-04-30T14:53:29.000Z,2.9
2023-04-30T14:54:45.000Z,2.7
2023-04-30T14:56:01.000Z,3.1
2023-04-30T14:57:17.000Z,3.1
2023-04-30T14:58:33.000Z,3.4
2023-04-30T14:59:49.000Z,3.3
2023-04-30T15:01:05.000Z,3.1
2023-04-30T15:02:21.000Z,3.4
2023-04-30T15:03:37.000Z,3.5
2023-04-30T15:04:53.000Z,3.3
2023-04-30T15:06:08.000Z,3.2
2023-04-30T15:07:23.000Z,3.2
2023-04-30T15:08:38.789Z,2.9
2023-04-30T15:09:54.000Z,3.6
2023-04-30T15:11:10.000Z,3.4
2023-04-30T15:12:26.000Z,3.4
2023-04-30T15:13:43.000Z,3.7
2023-04-30T15:14:59.000Z,2.9
2023-04-30T15:16:15.000Z,3.4
2023-04-30T15:17:31.000Z,3.5
2023-04-30T15:18:47.000Z,2.7
2023-04-30T15:20:04.086Z,3.5
2023-04-30T15:21:19.000Z,3.1
2023-04-30T15:22:36.000Z,3.2
2023-04-30T15:23:52.000Z,3.5
2023-04-30T15:25:07.000Z,3.3
2023-04-30T15:26:23.820Z,3.2
2023-04-30T15:27:39.000Z,2.7
2023-04-30T15:28:55.000Z,3
2023-04-30T15:30:12.000Z,3.1
2023-04-30T15:31:28.000Z,3.4
2023-04-30T15:32:44.000Z,3.3
2023-04-30T15:33:59.000Z,2.7
2023-04-30T15:35:14.000Z,3.5
2023-04-30T15:36:30.000Z,3
2023-04-30T15:37:46.000Z,3
2023-04-30T15:39:03.000Z,3.3
2023-04-30T15:40:19.437Z,3.1
2023-04-30T15:41:35.000Z,3
2023-04-30T15:42:50.000Z,3
2023-04-30T15:44:06.000Z,3.3
2023-04-30T15:45:22.000Z,3.6
2023-04-30T15:46:38.000Z,3.1
2023-04-30T15:47:55.000Z,3.2
2023-04-30T15:49:11.000Z,3.3
2023-04-30T15:50:27.000Z,3.6
2023-04-30T15:51:43.000Z,3.5
2023-04-30T15:52:59.000Z,3.2
2023-04-30T15:54:15.000Z,3.2
2023-04-30T15:55:31.000Z,3.2
2023-04-30T15:56:48.000Z,3.3
2023-04-30T15:58:04.000Z,3
2023-04-30T15:59:19.000Z,2.7
2023-04-30T16:00:34.000Z,3.2
2023-04-30T16:01:49.000Z,3.2
2023-04-30T16:03:04.000Z,3.6
2023-04-30T16:04:20.287Z,3
2023-04-30T16:05:36.000Z,3.1
2023-04-30T16:06:52.000Z,3.6
2023-04-30T16:08:08.000Z,3.1
2023-04-30T16:09:24.000Z,3.2
2023-04-30T16:10:40.000Z,2.6
2023-04-30T16:11:56.000Z,3.5
2023-04-30T16:13:13.000Z,3.1
2023-04-30T16:14:29.000Z,3
2023-04-30T16:15:45.576Z,3.6
2023-04-30T16:17:01.721Z,2.9
2023-04-30T16:18:17.000Z,2.9
2023-04-30T16:20:50.152Z,3.2
2023-04-30T16:22:05.317Z,3
2023-04-30T16:23:21.000Z,3.3
2023-04-30T16:24:37.000Z,3
2023-04-30T16:25:53.000Z,3.1
2023-04-30T16:27:09.000Z,3.2
2023-04-30T16:28:26.031Z,3.5
2023-04-30T16:29:41.000Z,3.8
2023-04-30T16:30:57.000Z,2.9
2023-04-30T16:32:12.000Z,3.2
2023-04-30T16:33:27.000Z,3.2
2023-04-30T16:34:42.836Z,3.5
2023-04-30T16:35:58.000Z,3
2023-04-30T16:37:15.112Z,3.3
2023-04-30T16:38:31.255Z,3.5
2023-04-30T16:39:47.000Z,3.2
2023-04-30T16:41:03.000Z,3.2
2023-04-30T16:42:19.000Z,2.9
2023-04-30T16:43:35.836Z,3.7
2023-04-30T16:44:51.000Z,3
2023-04-30T16:46:07.000Z,3.3
2023-04-30T16:47:24.000Z,2.7
2023-04-30T16:48:40.000Z,3
2023-04-30T16:49:56.544Z,3.4
2023-04-30T16:51:11.000Z,3.3
2023-04-30T16:52:27.000Z,3
2023-04-30T16:53:43.000Z,2.8
2023-04-30T16:54:59.000Z,3.1
2023-04-30T16:56:16.000Z,3.2
2023-04-30T16:57:32.000Z,3.3
2023-04-30T16:58:48.000Z,3
2023-04-30T17:00:03.000Z,3.1
2023-04-30T17:01:18.000Z,3.2
2023-04-30T17:02:34.066Z,3.1
2023-04-30T17:03:49.000Z,2.9
2023-04-30T17:05:05.000Z,3.4
2023-04-30T17:06:21.511Z,3.4
2023-04-30T17:07:37.655Z,3.3
2023-04-30T17:08:53.000Z,3.8
2023-04-30T17:10:09.000Z,3.5
2023-04-30T17:11:25.000Z,3
2023-04-30T17:12:42.230Z,3.8
2023-04-30T17:13:58.000Z,2.9
2023-04-30T17:15:14.512Z,2.9
2023-04-30T17:16:30.000Z,3
2023-04-30T17:17:46.000Z,2.9
2023-04-30T17:19:02.000Z,3.8
2023-04-30T17:20:17.000Z,3.4
2023-04-30T17:21:34.000Z,3.6
2023-04-30T17:22:50.000Z,2.9
2023-04-30T17:24:06.000Z,3.3
2023-04-30T17:25:22.000Z,3.4
2023-04-30T17:26:38.000Z,3.2
2023-04-30T17:27:54.970Z,3.3
2023-04-30T17:29:09.000Z,3
2023-04-30T17:30:25.000Z,3.6
2023-04-30T17:31:41.000Z,3.7
2023-04-30T17:32:57.000Z,3
2023-04-30T17:34:12.754Z,3.2
2023-04-30T17:35:27.914Z,3.6
2023-04-30T17:36:43.000Z,3.1
2023-04-30T17:37:59.000Z,4.2
2023-04-30T17:39:16.343Z,3.5
2023-04-30T17:40:32.000Z,3.4
2023-04-30T17:41:48.000Z,3.1
2023-04-30T17:43:04.000Z,3.4
2023-04-30T17:44:20.000Z,3.4
2023-04-30T17:45:37.066Z,3.8
2023-04-30T17:46:53.212Z,3.5
2023-04-30T17:48:09.000Z,3.1
2023-04-30T17:49:25.000Z,3.2
2023-04-30T17:50:41.632Z,4
2023-04-30T17:51:56.000Z,3.4